Accueil
METAR-TAF:

METAR-TAF

Aéroports :

Aéroport d'Ajaccio-Napoléon-Bonaparte

Ajaccio, France

latitude: 41-55N, longitude: 008-48E, altitude: 6 m

Observation

Le bulletin a été fait il y a 29 minutes, à 02:30 UTC
Vent 5 kt de est/nord-est
Température 6°C
Humidité 75%
Pression 1026 hPa
Visibilité 10 km ou plus
pas de nuages en-dessous de 1500 mètres et pas de cumulonimbus.

METAR: LFKJ 080230Z AUTO 06005KT CAVOK 06/02 Q1026 NOSIG

Heure: 04:59 (02:59 UTC)

Prévision

Le bulletin a été fait il y a 59 minutes, à 02:00 UTC
Prévision valable du 08 à 03 UTC au 09 à 03 UTC
Vent 5 kt de nord-est
Visibilité 10 km ou plus
pas de nuages en-dessous de 1500 mètres et pas de cumulonimbus.
Evoluant progressivement
du 08 à 07 UTC au 08 à 09 UTC
Vent 10 kt de ouest/sud-ouest
Evoluant progressivement
du 08 à 19 UTC au 08 à 21 UTC
Vent 4 kt de nord-est

TAF: LFKJ 080200Z 0803/0903 05005KT CAVOK BECMG 0807/0809 24010KT BECMG 0819/0821 05004KT

Observations et prévisions météorologiques de plus de 4000 aéroports (messages METAR et TAF).

Les stations disponibles sont représentées par des disques jaunes et rouges sur la carte.

Passer la souris dessus pour voir le nom de la station.

Cliquer dessus pour voir les observations et prévisions météorologiques.

Pour changer de carte: cliquez sur les boutons verts avec une croix noire pour zoomer, sur le bouton vert avec un tiret pour effectuer un zoom arrière, ou sur les flèches vertes pour les cartes adjacentes.


METAR-TAF: